<?xml version='1.0' encoding='UTF-8'?>
<gpx xmlns="http://www.topografix.com/GPX/1/1" creator="www.balnam.be" version="1.1" xmlns:xsi="http://www.w3.org/2001/XMLSchema-instance" xsi:schemaLocation="http://www.topografix.com/GPX/1/1 http://www.topografix.com/GPX/1/1/gpx.xsd">
<trk>
<name>nhvpr1</name>
<cmt>r</cmt>
<desc>Porcheresse Chemin n°1 Rue Albert Billy</desc>
<link href="https://chemins.be/porcheresse/chemin/1"/><trkseg>
<trkpt lat="50.341456" lon="5.244273"><time>2026-05-06T17:54:22Z</time></trkpt>
<trkpt lat="50.339120" lon="5.240507"><time>2026-05-06T18:04:22Z</time></trkpt>
<trkpt lat="50.336713" lon="5.236543"><time>2026-05-06T18:14:22Z</time></trkpt>
<trkpt lat="50.334905" lon="5.234276"><time>2026-05-06T18:24:22Z</time></trkpt>
<trkpt lat="50.333426" lon="5.232480"><time>2026-05-06T18:34:22Z</time></trkpt>
<trkpt lat="50.333101" lon="5.230184"><time>2026-05-06T18:44:22Z</time></trkpt>
<trkpt lat="50.333185" lon="5.229736"><time>2026-05-06T18:54:22Z</time></trkpt>
<trkpt lat="50.333189" lon="5.229216"><time>2026-05-06T19:04:22Z</time></trkpt>
<trkpt lat="50.333012" lon="5.228862"><time>2026-05-06T19:14:22Z</time></trkpt>
<trkpt lat="50.332960" lon="5.227414"><time>2026-05-06T19:24:22Z</time></trkpt>
<trkpt lat="50.332947" lon="5.224310"><time>2026-05-06T19:34:22Z</time></trkpt>
<trkpt lat="50.331252" lon="5.218163"><time>2026-05-06T19:44:22Z</time></trkpt>
<trkpt lat="50.329890" lon="5.215757"><time>2026-05-06T19:54:22Z</time></trkpt>
</trkseg>
</trk>
<trk>
<name>nhvpr10</name>
<cmt>r</cmt>
<desc>Porcheresse Chemin n°10 Champ du Bois</desc>
<link href="https://chemins.be/porcheresse/chemin/10"/><trkseg>
<trkpt lat="50.300296" lon="5.248834"><time>2026-05-06T17:54:22Z</time></trkpt>
<trkpt lat="50.300511" lon="5.247785"><time>2026-05-06T18:04:22Z</time></trkpt>
<trkpt lat="50.301234" lon="5.246086"><time>2026-05-06T18:14:22Z</time></trkpt>
<trkpt lat="50.301288" lon="5.244964"><time>2026-05-06T18:24:22Z</time></trkpt>
<trkpt lat="50.302132" lon="5.242748"><time>2026-05-06T18:34:22Z</time></trkpt>
<trkpt lat="50.302320" lon="5.241558"><time>2026-05-06T18:44:22Z</time></trkpt>
<trkpt lat="50.303112" lon="5.241545"><time>2026-05-06T18:54:22Z</time></trkpt>
</trkseg>
</trk>
<trk>
<name>nhvpr11</name>
<cmt>v</cmt>
<desc>Porcheresse Chemin n°11 Chemin de Mehogne</desc>
<link href="https://chemins.be/porcheresse/chemin/11"/><trkseg>
<trkpt lat="50.303185" lon="5.241391"><time>2026-05-06T17:54:22Z</time></trkpt>
<trkpt lat="50.302902" lon="5.240769"><time>2026-05-06T18:04:22Z</time></trkpt>
<trkpt lat="50.302366" lon="5.240324"><time>2026-05-06T18:14:22Z</time></trkpt>
<trkpt lat="50.300953" lon="5.239273"><time>2026-05-06T18:24:22Z</time></trkpt>
<trkpt lat="50.297696" lon="5.235985"><time>2026-05-06T18:34:22Z</time></trkpt>
<trkpt lat="50.297133" lon="5.235497"><time>2026-05-06T18:44:22Z</time></trkpt>
<trkpt lat="50.295820" lon="5.234337"><time>2026-05-06T18:54:22Z</time></trkpt>
<trkpt lat="50.294395" lon="5.233805"><time>2026-05-06T19:04:22Z</time></trkpt>
</trkseg>
</trk>
<trk>
<name>nhvpr12</name>
<cmt>v</cmt>
<desc>Porcheresse Chemin n°12 </desc>
<link href="https://chemins.be/porcheresse/chemin/12"/><trkseg>
<trkpt lat="50.297142" lon="5.235498"><time>2026-05-06T17:54:22Z</time></trkpt>
<trkpt lat="50.296102" lon="5.236279"><time>2026-05-06T18:04:22Z</time></trkpt>
<trkpt lat="50.295388" lon="5.236813"><time>2026-05-06T18:14:22Z</time></trkpt>
</trkseg>
</trk>
<trk>
<name>nhvpr12bis</name>
<cmt>d</cmt>
<desc>Porcheresse Chemin n°12bis </desc>
<link href="https://chemins.be/porcheresse/chemin/12bis"/><trkseg>
<trkpt lat="50.302169" lon="5.240152"><time>2026-05-06T17:54:22Z</time></trkpt>
<trkpt lat="50.302335" lon="5.239635"><time>2026-05-06T18:04:22Z</time></trkpt>
<trkpt lat="50.302295" lon="5.238905"><time>2026-05-06T18:14:22Z</time></trkpt>
<trkpt lat="50.302111" lon="5.238340"><time>2026-05-06T18:24:22Z</time></trkpt>
<trkpt lat="50.302314" lon="5.237571"><time>2026-05-06T18:34:22Z</time></trkpt>
</trkseg>
</trk>
<trk>
<name>nhvpr13</name>
<cmt>v</cmt>
<desc>Porcheresse Chemin n°13 Porcheresse/Chemin n° 13 [VP]</desc>
<link href="https://chemins.be/porcheresse/chemin/13"/><trkseg>
<trkpt lat="50.329908" lon="5.215701"><time>2026-05-06T17:54:22Z</time></trkpt>
<trkpt lat="50.330434" lon="5.215064"><time>2026-05-06T18:04:22Z</time></trkpt>
<trkpt lat="50.331032" lon="5.214485"><time>2026-05-06T18:14:22Z</time></trkpt>
<trkpt lat="50.331394" lon="5.214182"><time>2026-05-06T18:24:22Z</time></trkpt>
<trkpt lat="50.331707" lon="5.214038"><time>2026-05-06T18:34:22Z</time></trkpt>
<trkpt lat="50.331915" lon="5.213967"><time>2026-05-06T18:44:22Z</time></trkpt>
</trkseg>
</trk>
<trk>
<name>nhvpr14</name>
<cmt>v</cmt>
<desc>Porcheresse Chemin n°14 Ferme du Bois de Rémont / ?</desc>
<link href="https://chemins.be/porcheresse/chemin/14"/><trkseg>
<trkpt lat="50.332927" lon="5.228766"><time>2026-05-06T17:54:22Z</time></trkpt>
<trkpt lat="50.333017" lon="5.228718"><time>2026-05-06T18:04:22Z</time></trkpt>
<trkpt lat="50.333100" lon="5.228544"><time>2026-05-06T18:14:22Z</time></trkpt>
</trkseg></trk>
<trk>
<name>nhvpr14</name>
<cmt>q</cmt>
<desc>Porcheresse Chemin n°14 Ferme du Bois de Rémont / ?</desc>
<link href="https://chemins.be/porcheresse/chemin/14"/><trkseg>
<trkpt lat="50.333100" lon="5.228544"><time>2026-05-06T18:14:22Z</time></trkpt>
<trkpt lat="50.333441" lon="5.227783"><time>2026-05-06T18:24:22Z</time></trkpt>
</trkseg></trk>
<trk>
<name>nhvpr14</name>
<cmt>d</cmt>
<desc>Porcheresse Chemin n°14 Ferme du Bois de Rémont / ?</desc>
<link href="https://chemins.be/porcheresse/chemin/14"/><trkseg>
<trkpt lat="50.333441" lon="5.227783"><time>2026-05-06T18:24:22Z</time></trkpt>
<trkpt lat="50.333989" lon="5.227110"><time>2026-05-06T18:34:22Z</time></trkpt>
<trkpt lat="50.334473" lon="5.224915"><time>2026-05-06T18:44:22Z</time></trkpt>
</trkseg></trk>
<trk>
<name>nhvpr14</name>
<cmt>v</cmt>
<desc>Porcheresse Chemin n°14 Ferme du Bois de Rémont / ?</desc>
<link href="https://chemins.be/porcheresse/chemin/14"/><trkseg>
<trkpt lat="50.334473" lon="5.224915"><time>2026-05-06T18:44:22Z</time></trkpt>
<trkpt lat="50.335056" lon="5.222381"><time>2026-05-06T18:54:22Z</time></trkpt>
<trkpt lat="50.335197" lon="5.221541"><time>2026-05-06T19:04:22Z</time></trkpt>
<trkpt lat="50.335796" lon="5.219515"><time>2026-05-06T19:14:22Z</time></trkpt>
<trkpt lat="50.336140" lon="5.217947"><time>2026-05-06T19:24:22Z</time></trkpt>
<trkpt lat="50.336698" lon="5.216693"><time>2026-05-06T19:34:22Z</time></trkpt>
<trkpt lat="50.337113" lon="5.215282"><time>2026-05-06T19:44:22Z</time></trkpt>
<trkpt lat="50.337687" lon="5.214224"><time>2026-05-06T19:54:22Z</time></trkpt>
<trkpt lat="50.338380" lon="5.211708"><time>2026-05-06T20:04:22Z</time></trkpt>
<trkpt lat="50.338953" lon="5.209470"><time>2026-05-06T20:14:22Z</time></trkpt>
</trkseg>
</trk>
<trk>
<name>nhvpr15</name>
<cmt>s</cmt>
<desc>Porcheresse Chemin n°15 </desc>
<link href="https://chemins.be/porcheresse/chemin/15"/><trkseg>
<trkpt lat="50.340106" lon="5.228906"><time>2026-05-06T17:54:22Z</time></trkpt>
<trkpt lat="50.338545" lon="5.223525"><time>2026-05-06T18:04:22Z</time></trkpt>
<trkpt lat="50.335893" lon="5.218575"><time>2026-05-06T18:14:22Z</time></trkpt>
<trkpt lat="50.334803" lon="5.216449"><time>2026-05-06T18:24:22Z</time></trkpt>
<trkpt lat="50.333565" lon="5.216033"><time>2026-05-06T18:34:22Z</time></trkpt>
<trkpt lat="50.332337" lon="5.214283"><time>2026-05-06T18:44:22Z</time></trkpt>
<trkpt lat="50.332025" lon="5.213857"><time>2026-05-06T18:54:22Z</time></trkpt>
</trkseg>
</trk>
<trk>
<name>nhvpr15bis</name>
<cmt>d</cmt>
<desc>Porcheresse Chemin n°15bis </desc>
<link href="https://chemins.be/porcheresse/chemin/15bis"/><trkseg>
<trkpt lat="50.330452" lon="5.215107"><time>2026-05-06T17:54:22Z</time></trkpt>
<trkpt lat="50.333078" lon="5.218679"><time>2026-05-06T18:04:22Z</time></trkpt>
<trkpt lat="50.334067" lon="5.219989"><time>2026-05-06T18:14:22Z</time></trkpt>
<trkpt lat="50.335188" lon="5.221527"><time>2026-05-06T18:24:22Z</time></trkpt>
<trkpt lat="50.337823" lon="5.225044"><time>2026-05-06T18:34:22Z</time></trkpt>
<trkpt lat="50.339542" lon="5.227308"><time>2026-05-06T18:44:22Z</time></trkpt>
<trkpt lat="50.339542" lon="5.227351"><time>2026-05-06T18:54:22Z</time></trkpt>
<trkpt lat="50.340468" lon="5.228547"><time>2026-05-06T19:04:22Z</time></trkpt>
</trkseg>
</trk>
<trk>
<name>nhvpr16</name>
<cmt>d</cmt>
<desc>Porcheresse Chemin n°16 </desc>
<link href="https://chemins.be/porcheresse/chemin/16"/><trkseg>
<trkpt lat="50.340896" lon="5.227839"><time>2026-05-06T17:54:22Z</time></trkpt>
<trkpt lat="50.342413" lon="5.223230"><time>2026-05-06T18:04:22Z</time></trkpt>
<trkpt lat="50.342814" lon="5.221270"><time>2026-05-06T18:14:22Z</time></trkpt>
<trkpt lat="50.343069" lon="5.219645"><time>2026-05-06T18:24:22Z</time></trkpt>
<trkpt lat="50.343415" lon="5.215408"><time>2026-05-06T18:34:22Z</time></trkpt>
</trkseg>
</trk>
<trk>
<name>nhvpr17</name>
<cmt>v</cmt>
<desc>Porcheresse Chemin n°17 </desc>
<link href="https://chemins.be/porcheresse/chemin/17"/><trkseg>
<trkpt lat="50.332896" lon="5.227525"><time>2026-05-06T17:54:22Z</time></trkpt>
<trkpt lat="50.333442" lon="5.227816"><time>2026-05-06T18:04:22Z</time></trkpt>
<trkpt lat="50.335217" lon="5.228565"><time>2026-05-06T18:14:22Z</time></trkpt>
<trkpt lat="50.336649" lon="5.229448"><time>2026-05-06T18:24:22Z</time></trkpt>
<trkpt lat="50.338250" lon="5.229322"><time>2026-05-06T18:34:22Z</time></trkpt>
<trkpt lat="50.340311" lon="5.229135"><time>2026-05-06T18:44:22Z</time></trkpt>
<trkpt lat="50.340931" lon="5.227882"><time>2026-05-06T18:54:22Z</time></trkpt>
<trkpt lat="50.343174" lon="5.224873"><time>2026-05-06T19:04:22Z</time></trkpt>
<trkpt lat="50.343864" lon="5.222736"><time>2026-05-06T19:14:22Z</time></trkpt>
<trkpt lat="50.344491" lon="5.220724"><time>2026-05-06T19:24:22Z</time></trkpt>
<trkpt lat="50.345431" lon="5.218732"><time>2026-05-06T19:34:22Z</time></trkpt>
<trkpt lat="50.346144" lon="5.218351"><time>2026-05-06T19:44:22Z</time></trkpt>
</trkseg>
</trk>
<trk>
<name>nhvpr18</name>
<cmt>v</cmt>
<desc>Porcheresse Chemin n°18 </desc>
<link href="https://chemins.be/porcheresse/chemin/18"/><trkseg>
<trkpt lat="50.340000" lon="5.208913"><time>2026-05-06T17:54:22Z</time></trkpt>
<trkpt lat="50.342678" lon="5.214088"><time>2026-05-06T18:04:22Z</time></trkpt>
</trkseg>
</trk>
<trk>
<name>nhvpr19</name>
<cmt>v</cmt>
<desc>Porcheresse Chemin n°19 </desc>
<link href="https://chemins.be/porcheresse/chemin/19"/><trkseg>
<trkpt lat="50.347933" lon="5.226926"><time>2026-05-06T17:54:22Z</time></trkpt>
<trkpt lat="50.348805" lon="5.229471"><time>2026-05-06T18:04:22Z</time></trkpt>
</trkseg>
</trk>
<trk>
<name>nhvpr2</name>
<cmt>v</cmt>
<desc>Porcheresse Chemin n°2 </desc>
<link href="https://chemins.be/porcheresse/chemin/2"/><trkseg>
<trkpt lat="50.341932" lon="5.245490"><time>2026-05-06T17:54:22Z</time></trkpt>
<trkpt lat="50.343936" lon="5.244529"><time>2026-05-06T18:04:22Z</time></trkpt>
<trkpt lat="50.344685" lon="5.244135"><time>2026-05-06T18:14:22Z</time></trkpt>
<trkpt lat="50.346285" lon="5.244221"><time>2026-05-06T18:24:22Z</time></trkpt>
</trkseg>
</trk>
<trk>
<name>nhvpr20</name>
<cmt>v</cmt>
<desc>Porcheresse Chemin n°20 </desc>
<link href="https://chemins.be/porcheresse/chemin/20"/><trkseg>
<trkpt lat="50.340194" lon="5.229119"><time>2026-05-06T17:54:22Z</time></trkpt>
<trkpt lat="50.344040" lon="5.235398"><time>2026-05-06T18:04:22Z</time></trkpt>
<trkpt lat="50.346207" lon="5.238951"><time>2026-05-06T18:14:22Z</time></trkpt>
</trkseg>
</trk>
<trk>
<name>nhvpr21</name>
<cmt>v</cmt>
<desc>Porcheresse Chemin n°21 </desc>
<link href="https://chemins.be/porcheresse/chemin/21"/><trkseg>
<trkpt lat="50.341921" lon="5.241008"><time>2026-05-06T17:54:22Z</time></trkpt>
<trkpt lat="50.342115" lon="5.240351"><time>2026-05-06T18:04:22Z</time></trkpt>
<trkpt lat="50.342654" lon="5.239152"><time>2026-05-06T18:14:22Z</time></trkpt>
<trkpt lat="50.343154" lon="5.237223"><time>2026-05-06T18:24:22Z</time></trkpt>
<trkpt lat="50.344102" lon="5.235512"><time>2026-05-06T18:34:22Z</time></trkpt>
</trkseg>
</trk>
<trk>
<name>nhvpr22</name>
<cmt>r</cmt>
<desc>Porcheresse Chemin n°22 Route de Jeneffe / Rue de Jeneffe</desc>
<link href="https://chemins.be/porcheresse/chemin/22"/><trkseg>
<trkpt lat="50.340133" lon="5.242014"><time>2026-05-06T17:54:22Z</time></trkpt>
<trkpt lat="50.341203" lon="5.240840"><time>2026-05-06T18:04:22Z</time></trkpt>
<trkpt lat="50.341339" lon="5.240674"><time>2026-05-06T18:14:22Z</time></trkpt>
<trkpt lat="50.341573" lon="5.240692"><time>2026-05-06T18:24:22Z</time></trkpt>
</trkseg></trk>
<trk>
<name>nhvpr22</name>
<cmt>v</cmt>
<desc>Porcheresse Chemin n°22 Route de Jeneffe / Rue de Jeneffe</desc>
<link href="https://chemins.be/porcheresse/chemin/22"/><trkseg>
<trkpt lat="50.341573" lon="5.240692"><time>2026-05-06T18:24:22Z</time></trkpt>
<trkpt lat="50.341948" lon="5.241008"><time>2026-05-06T18:34:22Z</time></trkpt>
<trkpt lat="50.342484" lon="5.241524"><time>2026-05-06T18:44:22Z</time></trkpt>
<trkpt lat="50.342857" lon="5.242050"><time>2026-05-06T18:54:22Z</time></trkpt>
</trkseg>
</trk>
<trk>
<name>nhvpr23</name>
<cmt>v</cmt>
<desc>Porcheresse Chemin n°23 </desc>
<link href="https://chemins.be/porcheresse/chemin/23"/><trkseg>
<trkpt lat="50.342973" lon="5.242221"><time>2026-05-06T17:54:22Z</time></trkpt>
<trkpt lat="50.342773" lon="5.243721"><time>2026-05-06T18:04:22Z</time></trkpt>
<trkpt lat="50.342050" lon="5.245365"><time>2026-05-06T18:14:22Z</time></trkpt>
</trkseg>
</trk>
<trk>
<name>nhvpr24</name>
<cmt>r</cmt>
<desc>Porcheresse Chemin n°24 Chantraine</desc>
<link href="https://chemins.be/porcheresse/chemin/24"/><trkseg>
<trkpt lat="50.342058" lon="5.245492"><time>2026-05-06T17:54:22Z</time></trkpt>
<trkpt lat="50.342681" lon="5.247527"><time>2026-05-06T18:04:22Z</time></trkpt>
<trkpt lat="50.342628" lon="5.248565"><time>2026-05-06T18:14:22Z</time></trkpt>
<trkpt lat="50.343261" lon="5.249279"><time>2026-05-06T18:24:22Z</time></trkpt>
<trkpt lat="50.345012" lon="5.252010"><time>2026-05-06T18:34:22Z</time></trkpt>
<trkpt lat="50.346499" lon="5.253878"><time>2026-05-06T18:44:22Z</time></trkpt>
</trkseg>
</trk>
<trk>
<name>nhvpr25</name>
<cmt>v</cmt>
<desc>Porcheresse Chemin n°25 </desc>
<link href="https://chemins.be/porcheresse/chemin/25"/><trkseg>
<trkpt lat="50.341905" lon="5.245503"><time>2026-05-06T17:54:22Z</time></trkpt>
<trkpt lat="50.341668" lon="5.247143"><time>2026-05-06T18:04:22Z</time></trkpt>
<trkpt lat="50.340683" lon="5.250201"><time>2026-05-06T18:14:22Z</time></trkpt>
<trkpt lat="50.340005" lon="5.251832"><time>2026-05-06T18:24:22Z</time></trkpt>
<trkpt lat="50.339730" lon="5.252501"><time>2026-05-06T18:34:22Z</time></trkpt>
<trkpt lat="50.339569" lon="5.253552"><time>2026-05-06T18:44:22Z</time></trkpt>
<trkpt lat="50.339390" lon="5.254630"><time>2026-05-06T18:54:22Z</time></trkpt>
</trkseg>
</trk>
<trk>
<name>nhvpr26</name>
<cmt>v</cmt>
<desc>Porcheresse Chemin n°26 Chemin de Rémont à Alne</desc>
<link href="https://chemins.be/porcheresse/chemin/26"/><trkseg>
<trkpt lat="50.316211" lon="5.240465"><time>2026-05-06T17:54:22Z</time></trkpt>
<trkpt lat="50.315219" lon="5.241992"><time>2026-05-06T18:04:22Z</time></trkpt>
</trkseg>
</trk>
<trk>
<name>nhvpr27</name>
<cmt>v</cmt>
<desc>Porcheresse Chemin n°27 </desc>
<link href="https://chemins.be/porcheresse/chemin/27"/><trkseg>
<trkpt lat="50.321976" lon="5.225741"><time>2026-05-06T17:54:22Z</time></trkpt>
<trkpt lat="50.321151" lon="5.223030"><time>2026-05-06T18:04:22Z</time></trkpt>
<trkpt lat="50.321407" lon="5.222389"><time>2026-05-06T18:14:22Z</time></trkpt>
<trkpt lat="50.320697" lon="5.219918"><time>2026-05-06T18:24:22Z</time></trkpt>
<trkpt lat="50.320812" lon="5.217730"><time>2026-05-06T18:34:22Z</time></trkpt>
</trkseg></trk>
<trk>
<name>nhvpr27</name>
<cmt>d</cmt>
<desc>Porcheresse Chemin n°27 </desc>
<link href="https://chemins.be/porcheresse/chemin/27"/><trkseg>
<trkpt lat="50.320812" lon="5.217730"><time>2026-05-06T18:34:22Z</time></trkpt>
<trkpt lat="50.319706" lon="5.215365"><time>2026-05-06T18:44:22Z</time></trkpt>
<trkpt lat="50.318900" lon="5.213665"><time>2026-05-06T18:54:22Z</time></trkpt>
</trkseg>
</trk>
<trk>
<name>nhvpr28</name>
<cmt>s</cmt>
<desc>Porcheresse Sentier n°28 </desc>
<link href="https://chemins.be/porcheresse/sentier/28"/><trkseg>
<trkpt lat="50.339727" lon="5.255283"><time>2026-05-06T17:54:22Z</time></trkpt>
<trkpt lat="50.340260" lon="5.254942"><time>2026-05-06T18:04:22Z</time></trkpt>
<trkpt lat="50.341704" lon="5.254308"><time>2026-05-06T18:14:22Z</time></trkpt>
<trkpt lat="50.343213" lon="5.253325"><time>2026-05-06T18:24:22Z</time></trkpt>
<trkpt lat="50.344709" lon="5.251667"><time>2026-05-06T18:34:22Z</time></trkpt>
<trkpt lat="50.345476" lon="5.251203"><time>2026-05-06T18:44:22Z</time></trkpt>
</trkseg>
</trk>
<trk>
<name>nhvpr29</name>
<cmt>s</cmt>
<desc>Porcheresse Sentier n°29 </desc>
<link href="https://chemins.be/porcheresse/sentier/29"/><trkseg>
<trkpt lat="50.342951" lon="5.242741"><time>2026-05-06T17:54:22Z</time></trkpt>
<trkpt lat="50.344208" lon="5.244253"><time>2026-05-06T18:04:22Z</time></trkpt>
</trkseg>
</trk>
<trk>
<name>nhvpr3</name>
<cmt>r</cmt>
<desc>Porcheresse Chemin n°3 Ferme du Hazard / Rue du Harleux</desc>
<link href="https://chemins.be/porcheresse/chemin/3"/><trkseg>
<trkpt lat="50.317287" lon="5.240822"><time>2026-05-06T17:54:22Z</time></trkpt>
<trkpt lat="50.318040" lon="5.241159"><time>2026-05-06T18:04:22Z</time></trkpt>
<trkpt lat="50.321869" lon="5.242437"><time>2026-05-06T18:14:22Z</time></trkpt>
</trkseg></trk>
<trk>
<name>nhvpr3</name>
<cmt>v</cmt>
<desc>Porcheresse Chemin n°3 Ferme du Hazard / Rue du Harleux</desc>
<link href="https://chemins.be/porcheresse/chemin/3"/><trkseg>
<trkpt lat="50.321869" lon="5.242437"><time>2026-05-06T18:14:22Z</time></trkpt>
<trkpt lat="50.326799" lon="5.243328"><time>2026-05-06T18:24:22Z</time></trkpt>
<trkpt lat="50.328740" lon="5.243462"><time>2026-05-06T18:34:22Z</time></trkpt>
<trkpt lat="50.330424" lon="5.244224"><time>2026-05-06T18:44:22Z</time></trkpt>
<trkpt lat="50.331539" lon="5.244244"><time>2026-05-06T18:54:22Z</time></trkpt>
<trkpt lat="50.334012" lon="5.244248"><time>2026-05-06T19:04:22Z</time></trkpt>
<trkpt lat="50.336208" lon="5.243937"><time>2026-05-06T19:14:22Z</time></trkpt>
</trkseg></trk>
<trk>
<name>nhvpr3</name>
<cmt>r</cmt>
<desc>Porcheresse Chemin n°3 Ferme du Hazard / Rue du Harleux</desc>
<link href="https://chemins.be/porcheresse/chemin/3"/><trkseg>
<trkpt lat="50.336208" lon="5.243937"><time>2026-05-06T19:14:22Z</time></trkpt>
<trkpt lat="50.339077" lon="5.245029"><time>2026-05-06T19:24:22Z</time></trkpt>
</trkseg></trk>
<trk>
<name>nhvpr3</name>
<cmt>v</cmt>
<desc>Porcheresse Chemin n°3 Ferme du Hazard / Rue du Harleux</desc>
<link href="https://chemins.be/porcheresse/chemin/3"/><trkseg>
<trkpt lat="50.339077" lon="5.245029"><time>2026-05-06T19:24:22Z</time></trkpt>
<trkpt lat="50.339780" lon="5.245942"><time>2026-05-06T19:34:22Z</time></trkpt>
<trkpt lat="50.341100" lon="5.246149"><time>2026-05-06T19:44:22Z</time></trkpt>
<trkpt lat="50.341815" lon="5.245600"><time>2026-05-06T19:54:22Z</time></trkpt>
</trkseg>
</trk>
<trk>
<name>nhvpr30</name>
<cmt>s</cmt>
<desc>Porcheresse Sentier n°30 </desc>
<link href="https://chemins.be/porcheresse/sentier/30"/><trkseg>
<trkpt lat="50.344139" lon="5.235414"><time>2026-05-06T17:54:22Z</time></trkpt>
<trkpt lat="50.345533" lon="5.229370"><time>2026-05-06T18:04:22Z</time></trkpt>
</trkseg>
</trk>
<trk>
<name>nhvpr31</name>
<cmt>v</cmt>
<desc>Porcheresse Sentier n°31 </desc>
<link href="https://chemins.be/porcheresse/sentier/31"/><trkseg>
<trkpt lat="50.337550" lon="5.237682"><time>2026-05-06T17:54:22Z</time></trkpt>
<trkpt lat="50.338315" lon="5.236362"><time>2026-05-06T18:04:22Z</time></trkpt>
<trkpt lat="50.338189" lon="5.235109"><time>2026-05-06T18:14:22Z</time></trkpt>
<trkpt lat="50.338600" lon="5.234231"><time>2026-05-06T18:24:22Z</time></trkpt>
<trkpt lat="50.338498" lon="5.232235"><time>2026-05-06T18:34:22Z</time></trkpt>
<trkpt lat="50.340176" lon="5.229104"><time>2026-05-06T18:44:22Z</time></trkpt>
</trkseg>
</trk>
<trk>
<name>nhvpr32</name>
<cmt>v</cmt>
<desc>Porcheresse Sentier n°32 </desc>
<link href="https://chemins.be/porcheresse/sentier/32"/><trkseg>
<trkpt lat="50.337738" lon="5.237686"><time>2026-05-06T17:54:22Z</time></trkpt>
<trkpt lat="50.338184" lon="5.238228"><time>2026-05-06T18:04:22Z</time></trkpt>
<trkpt lat="50.339453" lon="5.239248"><time>2026-05-06T18:14:22Z</time></trkpt>
<trkpt lat="50.340440" lon="5.239561"><time>2026-05-06T18:24:22Z</time></trkpt>
<trkpt lat="50.341305" lon="5.240420"><time>2026-05-06T18:34:22Z</time></trkpt>
</trkseg>
</trk>
<trk>
<name>nhvpr33</name>
<cmt>s</cmt>
<desc>Porcheresse Sentier n°33 </desc>
<link href="https://chemins.be/porcheresse/sentier/33"/><trkseg>
<trkpt lat="50.340176" lon="5.242282"><time>2026-05-06T17:54:22Z</time></trkpt>
<trkpt lat="50.339003" lon="5.244059"><time>2026-05-06T18:04:22Z</time></trkpt>
<trkpt lat="50.337430" lon="5.246390"><time>2026-05-06T18:14:22Z</time></trkpt>
<trkpt lat="50.336743" lon="5.246911"><time>2026-05-06T18:24:22Z</time></trkpt>
<trkpt lat="50.336074" lon="5.248584"><time>2026-05-06T18:34:22Z</time></trkpt>
<trkpt lat="50.335802" lon="5.248846"><time>2026-05-06T18:44:22Z</time></trkpt>
</trkseg>
</trk>
<trk>
<name>nhvpr34</name>
<cmt>s</cmt>
<desc>Porcheresse Sentier n°34 </desc>
<link href="https://chemins.be/porcheresse/sentier/34"/><trkseg>
<trkpt lat="50.339407" lon="5.245373"><time>2026-05-06T17:54:22Z</time></trkpt>
<trkpt lat="50.338656" lon="5.246019"><time>2026-05-06T18:04:22Z</time></trkpt>
<trkpt lat="50.338051" lon="5.246331"><time>2026-05-06T18:14:22Z</time></trkpt>
<trkpt lat="50.337466" lon="5.246419"><time>2026-05-06T18:24:22Z</time></trkpt>
</trkseg>
</trk>
<trk>
<name>nhvpr35</name>
<cmt>s</cmt>
<desc>Porcheresse Sentier n°35 </desc>
<link href="https://chemins.be/porcheresse/sentier/35"/><trkseg>
<trkpt lat="50.339109" lon="5.240703"><time>2026-05-06T17:54:22Z</time></trkpt>
<trkpt lat="50.337523" lon="5.239986"><time>2026-05-06T18:04:22Z</time></trkpt>
<trkpt lat="50.335656" lon="5.238462"><time>2026-05-06T18:14:22Z</time></trkpt>
<trkpt lat="50.333661" lon="5.235827"><time>2026-05-06T18:24:22Z</time></trkpt>
<trkpt lat="50.327920" lon="5.234051"><time>2026-05-06T18:34:22Z</time></trkpt>
<trkpt lat="50.327369" lon="5.230796"><time>2026-05-06T18:44:22Z</time></trkpt>
<trkpt lat="50.326352" lon="5.228573"><time>2026-05-06T18:54:22Z</time></trkpt>
<trkpt lat="50.325297" lon="5.227781"><time>2026-05-06T19:04:22Z</time></trkpt>
<trkpt lat="50.323601" lon="5.227245"><time>2026-05-06T19:14:22Z</time></trkpt>
</trkseg>
</trk>
<trk>
<name>nhvpr36</name>
<cmt>s</cmt>
<desc>Porcheresse Sentier n°36 </desc>
<link href="https://chemins.be/porcheresse/sentier/36"/><trkseg>
<trkpt lat="50.333330" lon="5.232070"><time>2026-05-06T17:54:22Z</time></trkpt>
<trkpt lat="50.332969" lon="5.233370"><time>2026-05-06T18:04:22Z</time></trkpt>
<trkpt lat="50.333422" lon="5.234137"><time>2026-05-06T18:14:22Z</time></trkpt>
<trkpt lat="50.334091" lon="5.234838"><time>2026-05-06T18:24:22Z</time></trkpt>
</trkseg>
</trk>
<trk>
<name>nhvpr37</name>
<cmt>r</cmt>
<desc>Porcheresse Sentier n°37 Rémont</desc>
<link href="https://chemins.be/porcheresse/sentier/37"/><trkseg>
<trkpt lat="50.325878" lon="5.229379"><time>2026-05-06T17:54:22Z</time></trkpt>
<trkpt lat="50.325739" lon="5.230036"><time>2026-05-06T18:04:22Z</time></trkpt>
<trkpt lat="50.325704" lon="5.231089"><time>2026-05-06T18:14:22Z</time></trkpt>
<trkpt lat="50.325482" lon="5.231858"><time>2026-05-06T18:24:22Z</time></trkpt>
<trkpt lat="50.324035" lon="5.234275"><time>2026-05-06T18:34:22Z</time></trkpt>
</trkseg></trk>
<trk>
<name>nhvpr37</name>
<cmt>s</cmt>
<desc>Porcheresse Sentier n°37 Rémont</desc>
<link href="https://chemins.be/porcheresse/sentier/37"/><trkseg>
<trkpt lat="50.324035" lon="5.234275"><time>2026-05-06T18:34:22Z</time></trkpt>
<trkpt lat="50.327347" lon="5.239771"><time>2026-05-06T18:44:22Z</time></trkpt>
<trkpt lat="50.328554" lon="5.242251"><time>2026-05-06T18:54:22Z</time></trkpt>
<trkpt lat="50.328540" lon="5.243409"><time>2026-05-06T19:04:22Z</time></trkpt>
</trkseg>
</trk>
<trk>
<name>nhvpr38</name>
<cmt>s</cmt>
<desc>Porcheresse Sentier n°38 </desc>
<link href="https://chemins.be/porcheresse/sentier/38"/><trkseg>
<trkpt lat="50.322168" lon="5.242176"><time>2026-05-06T17:54:22Z</time></trkpt>
<trkpt lat="50.320626" lon="5.238047"><time>2026-05-06T18:04:22Z</time></trkpt>
<trkpt lat="50.317526" lon="5.230491"><time>2026-05-06T18:14:22Z</time></trkpt>
</trkseg>
</trk>
<trk>
<name>nhvpr39</name>
<cmt>s</cmt>
<desc>Porcheresse Sentier n°39 </desc>
<link href="https://chemins.be/porcheresse/sentier/39"/><trkseg>
<trkpt lat="50.320628" lon="5.217165"><time>2026-05-06T17:54:22Z</time></trkpt>
<trkpt lat="50.320781" lon="5.215861"><time>2026-05-06T18:04:22Z</time></trkpt>
<trkpt lat="50.320835" lon="5.214598"><time>2026-05-06T18:14:22Z</time></trkpt>
<trkpt lat="50.320591" lon="5.211027"><time>2026-05-06T18:24:22Z</time></trkpt>
</trkseg>
</trk>
<trk>
<name>nhvpr4</name>
<cmt>v</cmt>
<desc>Porcheresse Chemin n°4 </desc>
<link href="https://chemins.be/porcheresse/chemin/4"/><trkseg>
<trkpt lat="50.334672" lon="5.234188"><time>2026-05-06T17:54:22Z</time></trkpt>
<trkpt lat="50.333707" lon="5.235772"><time>2026-05-06T18:04:22Z</time></trkpt>
<trkpt lat="50.333714" lon="5.237177"><time>2026-05-06T18:14:22Z</time></trkpt>
<trkpt lat="50.333508" lon="5.239561"><time>2026-05-06T18:24:22Z</time></trkpt>
<trkpt lat="50.333347" lon="5.240639"><time>2026-05-06T18:34:22Z</time></trkpt>
<trkpt lat="50.332724" lon="5.242075"><time>2026-05-06T18:44:22Z</time></trkpt>
<trkpt lat="50.331494" lon="5.244314"><time>2026-05-06T18:54:22Z</time></trkpt>
<trkpt lat="50.331073" lon="5.245233"><time>2026-05-06T19:04:22Z</time></trkpt>
</trkseg>
</trk>
<trk>
<name>nhvpr40</name>
<cmt>s</cmt>
<desc>Porcheresse Sentier n°40 </desc>
<link href="https://chemins.be/porcheresse/sentier/40"/><trkseg>
<trkpt lat="50.316193" lon="5.240493"><time>2026-05-06T17:54:22Z</time></trkpt>
<trkpt lat="50.310728" lon="5.239101"><time>2026-05-06T18:04:22Z</time></trkpt>
<trkpt lat="50.309188" lon="5.238132"><time>2026-05-06T18:14:22Z</time></trkpt>
<trkpt lat="50.308932" lon="5.237552"><time>2026-05-06T18:24:22Z</time></trkpt>
<trkpt lat="50.307977" lon="5.237829"><time>2026-05-06T18:34:22Z</time></trkpt>
<trkpt lat="50.307150" lon="5.239050"><time>2026-05-06T18:44:22Z</time></trkpt>
<trkpt lat="50.306443" lon="5.240974"><time>2026-05-06T18:54:22Z</time></trkpt>
</trkseg>
</trk>
<trk>
<name>nhvpr41</name>
<cmt>v</cmt>
<desc>Porcheresse Sentier n°41 </desc>
<link href="https://chemins.be/porcheresse/sentier/41"/><trkseg>
<trkpt lat="50.303220" lon="5.241561"><time>2026-05-06T17:54:22Z</time></trkpt>
<trkpt lat="50.303177" lon="5.242430"><time>2026-05-06T18:04:22Z</time></trkpt>
<trkpt lat="50.303322" lon="5.243472"><time>2026-05-06T18:14:22Z</time></trkpt>
</trkseg></trk>
<trk>
<name>nhvpr41</name>
<cmt>s</cmt>
<desc>Porcheresse Sentier n°41 </desc>
<link href="https://chemins.be/porcheresse/sentier/41"/><trkseg>
<trkpt lat="50.303322" lon="5.243472"><time>2026-05-06T18:14:22Z</time></trkpt>
<trkpt lat="50.303838" lon="5.244155"><time>2026-05-06T18:24:22Z</time></trkpt>
<trkpt lat="50.304690" lon="5.248087"><time>2026-05-06T18:34:22Z</time></trkpt>
<trkpt lat="50.304645" lon="5.249238"><time>2026-05-06T18:44:22Z</time></trkpt>
<trkpt lat="50.305050" lon="5.250354"><time>2026-05-06T18:54:22Z</time></trkpt>
<trkpt lat="50.305062" lon="5.251099"><time>2026-05-06T19:04:22Z</time></trkpt>
<trkpt lat="50.305197" lon="5.252365"><time>2026-05-06T19:14:22Z</time></trkpt>
<trkpt lat="50.305373" lon="5.252817"><time>2026-05-06T19:24:22Z</time></trkpt>
<trkpt lat="50.305659" lon="5.253005"><time>2026-05-06T19:34:22Z</time></trkpt>
</trkseg>
</trk>
<trk>
<name>nhvpr42</name>
<cmt>s</cmt>
<desc>Porcheresse Sentier n°42 </desc>
<link href="https://chemins.be/porcheresse/sentier/42"/><trkseg>
<trkpt lat="50.302956" lon="5.240770"><time>2026-05-06T17:54:22Z</time></trkpt>
<trkpt lat="50.303480" lon="5.239249"><time>2026-05-06T18:04:22Z</time></trkpt>
<trkpt lat="50.303695" lon="5.238172"><time>2026-05-06T18:14:22Z</time></trkpt>
</trkseg>
</trk>
<trk>
<name>nhvpr5</name>
<cmt>v</cmt>
<desc>Porcheresse Chemin n°5 </desc>
<link href="https://chemins.be/porcheresse/chemin/5"/><trkseg>
<trkpt lat="50.340411" lon="5.229010"><time>2026-05-06T17:54:22Z</time></trkpt>
<trkpt lat="50.342215" lon="5.229310"><time>2026-05-06T18:04:22Z</time></trkpt>
<trkpt lat="50.345425" lon="5.229326"><time>2026-05-06T18:14:22Z</time></trkpt>
<trkpt lat="50.346519" lon="5.228503"><time>2026-05-06T18:24:22Z</time></trkpt>
<trkpt lat="50.347400" lon="5.227268"><time>2026-05-06T18:34:22Z</time></trkpt>
<trkpt lat="50.347853" lon="5.226911"><time>2026-05-06T18:44:22Z</time></trkpt>
<trkpt lat="50.349592" lon="5.225116"><time>2026-05-06T18:54:22Z</time></trkpt>
<trkpt lat="50.350476" lon="5.223473"><time>2026-05-06T19:04:22Z</time></trkpt>
</trkseg>
</trk>
<trk>
<name>nhvpr6</name>
<cmt>r</cmt>
<desc>Porcheresse Chemin n°6 Rue des Marlières</desc>
<link href="https://chemins.be/porcheresse/chemin/6"/><trkseg>
<trkpt lat="50.325942" lon="5.229268"><time>2026-05-06T17:54:22Z</time></trkpt>
<trkpt lat="50.326423" lon="5.228686"><time>2026-05-06T18:04:22Z</time></trkpt>
<trkpt lat="50.327605" lon="5.229382"><time>2026-05-06T18:14:22Z</time></trkpt>
<trkpt lat="50.329245" lon="5.228878"><time>2026-05-06T18:24:22Z</time></trkpt>
</trkseg>
</trk>
<trk>
<name>nhvpr7</name>
<cmt>r</cmt>
<desc>Porcheresse Chemin n°7 Rue des Marlières</desc>
<link href="https://chemins.be/porcheresse/chemin/7"/><trkseg>
<trkpt lat="50.321369" lon="5.225211"><time>2026-05-06T17:54:22Z</time></trkpt>
<trkpt lat="50.323039" lon="5.226729"><time>2026-05-06T18:04:22Z</time></trkpt>
<trkpt lat="50.325933" lon="5.229268"><time>2026-05-06T18:14:22Z</time></trkpt>
</trkseg>
</trk>
<trk>
<name>nhvpr8</name>
<cmt>r</cmt>
<desc>Porcheresse Chemin n°8 Route d'Ocquier</desc>
<link href="https://chemins.be/porcheresse/chemin/8"/><trkseg>
<trkpt lat="50.312532" lon="5.235891"><time>2026-05-06T17:54:22Z</time></trkpt>
<trkpt lat="50.310562" lon="5.232401"><time>2026-05-06T18:04:22Z</time></trkpt>
</trkseg>
</trk>
<trk>
<name>nhvpr9</name>
<cmt>v</cmt>
<desc>Porcheresse Chemin n°9 </desc>
<link href="https://chemins.be/porcheresse/chemin/9"/><trkseg>
<trkpt lat="50.306631" lon="5.237454"><time>2026-05-06T17:54:22Z</time></trkpt>
<trkpt lat="50.307082" lon="5.234809"><time>2026-05-06T18:04:22Z</time></trkpt>
</trkseg>
</trk>
<trk>
<name>nhvpri1</name>
<cmt>q</cmt>
<desc>Porcheresse Chemin n°i1 </desc>
<link href="https://chemins.be/porcheresse/chemin/i1"/><trkseg>
<trkpt lat="50.339256" lon="5.230661"><time>2026-05-06T17:54:22Z</time></trkpt>
<trkpt lat="50.338170" lon="5.229250"><time>2026-05-06T18:04:22Z</time></trkpt>
</trkseg>
</trk>
<trk>
<name>nhvpri10</name>
<cmt>v</cmt>
<desc>Porcheresse Chemin n°i10 Ferme du Bois de Rémont</desc>
<link href="https://chemins.be/porcheresse/chemin/i10"/><trkseg>
<trkpt lat="50.332975" lon="5.227411"><time>2026-05-06T17:54:22Z</time></trkpt>
<trkpt lat="50.334427" lon="5.224993"><time>2026-05-06T18:04:22Z</time></trkpt>
</trkseg>
</trk>
<trk>
<name>nhvpri2</name>
<cmt>v</cmt>
<desc>Porcheresse Chemin n°i2 Porcheresse/Chemin n° i2</desc>
<link href="https://chemins.be/porcheresse/chemin/i2"/><trkseg>
<trkpt lat="50.332610" lon="5.227352"><time>2026-05-06T17:54:22Z</time></trkpt>
<trkpt lat="50.331926" lon="5.226229"><time>2026-05-06T18:04:22Z</time></trkpt>
<trkpt lat="50.327583" lon="5.220168"><time>2026-05-06T18:14:22Z</time></trkpt>
<trkpt lat="50.327518" lon="5.219240"><time>2026-05-06T18:24:22Z</time></trkpt>
<trkpt lat="50.328672" lon="5.217575"><time>2026-05-06T18:34:22Z</time></trkpt>
<trkpt lat="50.329809" lon="5.215783"><time>2026-05-06T18:44:22Z</time></trkpt>
</trkseg>
</trk>
<trk>
<name>nhvpri3</name>
<cmt>v</cmt>
<desc>Porcheresse Chemin n°i3 </desc>
<link href="https://chemins.be/porcheresse/chemin/i3"/><trkseg>
<trkpt lat="50.337833" lon="5.213892"><time>2026-05-06T17:54:22Z</time></trkpt>
<trkpt lat="50.343913" lon="5.222704"><time>2026-05-06T18:04:22Z</time></trkpt>
<trkpt lat="50.347337" lon="5.227351"><time>2026-05-06T18:14:22Z</time></trkpt>
</trkseg>
</trk>
<trk>
<name>nhvpri4</name>
<cmt>v</cmt>
<desc>Porcheresse Chemin n°i4 </desc>
<link href="https://chemins.be/porcheresse/chemin/i4"/><trkseg>
<trkpt lat="50.324426" lon="5.233692"><time>2026-05-06T17:54:22Z</time></trkpt>
<trkpt lat="50.327865" lon="5.239064"><time>2026-05-06T18:04:22Z</time></trkpt>
</trkseg>
</trk>
<trk>
<name>nhvpri5</name>
<cmt>v</cmt>
<desc>Porcheresse Chemin n°i5 </desc>
<link href="https://chemins.be/porcheresse/chemin/i5"/><trkseg>
<trkpt lat="50.315175" lon="5.241935"><time>2026-05-06T17:54:22Z</time></trkpt>
<trkpt lat="50.314152" lon="5.241677"><time>2026-05-06T18:04:22Z</time></trkpt>
<trkpt lat="50.312455" lon="5.241337"><time>2026-05-06T18:14:22Z</time></trkpt>
<trkpt lat="50.311894" lon="5.240625"><time>2026-05-06T18:24:22Z</time></trkpt>
<trkpt lat="50.311526" lon="5.240534"><time>2026-05-06T18:34:22Z</time></trkpt>
<trkpt lat="50.311087" lon="5.241551"><time>2026-05-06T18:44:22Z</time></trkpt>
</trkseg></trk>
<trk>
<name>nhvpri5</name>
<cmt>s</cmt>
<desc>Porcheresse Chemin n°i5 </desc>
<link href="https://chemins.be/porcheresse/chemin/i5"/><trkseg>
<trkpt lat="50.311087" lon="5.241551"><time>2026-05-06T18:44:22Z</time></trkpt>
<trkpt lat="50.309989" lon="5.244044"><time>2026-05-06T18:54:22Z</time></trkpt>
</trkseg>
</trk>
<trk>
<name>nhvpri7</name>
<cmt>v</cmt>
<desc>Porcheresse Chemin n°i7 </desc>
<link href="https://chemins.be/porcheresse/chemin/i7"/><trkseg>
<trkpt lat="50.331945" lon="5.214010"><time>2026-05-06T17:54:22Z</time></trkpt>
<trkpt lat="50.332480" lon="5.214398"><time>2026-05-06T18:04:22Z</time></trkpt>
<trkpt lat="50.333165" lon="5.214336"><time>2026-05-06T18:14:22Z</time></trkpt>
<trkpt lat="50.334116" lon="5.213248"><time>2026-05-06T18:24:22Z</time></trkpt>
<trkpt lat="50.334764" lon="5.213189"><time>2026-05-06T18:34:22Z</time></trkpt>
<trkpt lat="50.335268" lon="5.213753"><time>2026-05-06T18:44:22Z</time></trkpt>
<trkpt lat="50.336196" lon="5.213735"><time>2026-05-06T18:54:22Z</time></trkpt>
<trkpt lat="50.337014" lon="5.213104"><time>2026-05-06T19:04:22Z</time></trkpt>
<trkpt lat="50.337717" lon="5.214012"><time>2026-05-06T19:14:22Z</time></trkpt>
</trkseg>
</trk>
<trk>
<name>nhvpri8</name>
<cmt>v</cmt>
<desc>Porcheresse Chemin n°i8 </desc>
<link href="https://chemins.be/porcheresse/chemin/i8"/><trkseg>
<trkpt lat="50.295563" lon="5.232303"><time>2026-05-06T17:54:22Z</time></trkpt>
<trkpt lat="50.295042" lon="5.232764"><time>2026-05-06T18:04:22Z</time></trkpt>
<trkpt lat="50.294741" lon="5.233955"><time>2026-05-06T18:14:22Z</time></trkpt>
</trkseg>
</trk>
<trk>
<name>nhvpri9</name>
<cmt>v</cmt>
<desc>Porcheresse Chemin n°i9 </desc>
<link href="https://chemins.be/porcheresse/chemin/i9"/><trkseg>
<trkpt lat="50.331087" lon="5.217766"><time>2026-05-06T17:54:22Z</time></trkpt>
<trkpt lat="50.331265" lon="5.217358"><time>2026-05-06T18:04:22Z</time></trkpt>
<trkpt lat="50.335136" lon="5.222454"><time>2026-05-06T18:14:22Z</time></trkpt>
<trkpt lat="50.336873" lon="5.224760"><time>2026-05-06T18:24:22Z</time></trkpt>
<trkpt lat="50.340167" lon="5.229048"><time>2026-05-06T18:34:22Z</time></trkpt>
</trkseg>
</trk>
</gpx>